Time;durP1;ratioP1;P1;durP2;ratioP2;P2;SDS_P1;SDS_P2;PMS_P1;PMS_P2;Temp;Humidity;BMP_temperature;BMP_pressure;BME280_temperature;BME280_humidity;BME280_pressure;Samples;Min_cycle;Max_cycle;Signal;HPM_P1;HPM_P2
2021/10/26 00:00:09;;;;;;;33.33;26.10;;;12.00;53.90;;;;;;5034798;28;20449;-64
2021/10/26 00:02:36;;;;;;;33.10;25.58;;;11.90;53.10;;;;;;5029073;28;20148;-64
2021/10/26 00:05:04;;;;;;;40.55;27.17;;;11.90;53.70;;;;;;5036901;28;20033;-64
2021/10/26 00:07:29;;;;;;;33.90;25.90;;;12.00;55.20;;;;;;5033387;28;20040;-64
2021/10/26 00:09:55;;;;;;;31.48;24.92;;;12.00;57.50;;;;;;5038851;28;20022;-64
2021/10/26 00:12:21;;;;;;;34.47;26.02;;;12.10;58.30;;;;;;5034740;28;20041;-64
2021/10/26 00:14:48;;;;;;;34.30;25.33;;;12.10;59.10;;;;;;5032718;28;20383;-65
2021/10/26 00:17:14;;;;;;;37.38;25.13;;;12.10;59.50;;;;;;5032570;28;20498;-65
2021/10/26 00:19:41;;;;;;;33.03;24.90;;;12.00;59.90;;;;;;5048305;28;20394;-64
2021/10/26 00:22:06;;;;;;;32.60;25.00;;;12.10;58.20;;;;;;5033660;28;20029;-65
2021/10/26 00:24:32;;;;;;;29.63;24.85;;;12.00;58.30;;;;;;5031648;28;20516;-65
2021/10/26 00:26:58;;;;;;;33.13;24.75;;;12.00;59.20;;;;;;5031923;28;20132;-65
2021/10/26 00:29:30;;;;;;;31.48;24.63;;;12.00;59.10;;;;;;5045363;28;20036;-65
2021/10/26 00:31:56;;;;;;;34.22;24.40;;;12.00;59.00;;;;;;5036416;28;20482;-65
2021/10/26 00:34:22;;;;;;;30.02;24.30;;;12.00;58.80;;;;;;5031209;28;20049;-65
2021/10/26 00:36:47;;;;;;;33.28;24.98;;;12.00;58.70;;;;;;5031158;28;20124;-64
2021/10/26 00:39:13;;;;;;;33.40;24.23;;;12.00;59.10;;;;;;5032508;28;20105;-65
2021/10/26 00:41:39;;;;;;;28.58;23.58;;;12.00;59.20;;;;;;5032122;28;20060;-65
2021/10/26 00:44:08;;;;;;;35.65;24.80;;;12.00;59.90;;;;;;5041514;28;20036;-65
2021/10/26 00:46:36;;;;;;;35.08;24.90;;;12.00;60.30;;;;;;5031413;28;20037;-65
2021/10/26 00:49:04;;;;;;;35.30;24.45;;;12.00;60.30;;;;;;5030106;28;20478;-65
2021/10/26 00:51:31;;;;;;;30.45;24.23;;;12.00;61.20;;;;;;5032487;28;20044;-64
2021/10/26 00:53:58;;;;;;;33.00;25.33;;;12.00;62.40;;;;;;5040062;28;20029;-65
2021/10/26 00:56:24;;;;;;;33.08;24.17;;;;;;;;;;5040025;28;20399;-64
2021/10/26 00:58:53;;;;;;;30.52;23.27;;;11.90;63.00;;;;;;5038696;28;20112;-64
2021/10/26 01:01:19;;;;;;;33.33;24.45;;;11.90;62.90;;;;;;5041838;28;20399;-64
2021/10/26 01:03:45;;;;;;;32.78;23.70;;;11.80;65.40;;;;;;5030284;28;20029;-65
2021/10/26 01:06:11;;;;;;;32.10;22.08;;;11.90;63.00;;;;;;5031196;28;20030;-64
2021/10/26 01:08:37;;;;;;;29.85;24.08;;;11.80;63.50;;;;;;5030125;28;20471;-64
2021/10/26 01:11:03;;;;;;;31.52;23.55;;;11.90;64.10;;;;;;5030997;28;20030;-65
2021/10/26 01:13:29;;;;;;;29.88;23.30;;;11.90;64.40;;;;;;5028270;28;20032;-64
2021/10/26 01:15:57;;;;;;;31.80;23.50;;;11.80;64.50;;;;;;5031471;28;20025;-64
2021/10/26 01:18:26;;;;;;;30.05;23.35;;;11.80;65.00;;;;;;5032185;28;20034;-64
2021/10/26 01:20:53;;;;;;;29.63;22.77;;;11.80;65.10;;;;;;5039640;28;20460;-64
2021/10/26 01:23:19;;;;;;;32.42;23.20;;;11.80;65.60;;;;;;5030859;28;20044;-65
2021/10/26 01:25:45;;;;;;;38.13;24.50;;;11.80;66.00;;;;;;5034260;28;20017;-65
2021/10/26 01:28:11;;;;;;;28.52;22.70;;;11.80;66.70;;;;;;5031635;28;20021;-65
2021/10/26 01:30:36;;;;;;;30.05;22.10;;;11.80;69.90;;;;;;5031675;28;20033;-64
2021/10/26 01:33:04;;;;;;;30.30;22.77;;;;;;;;;;5032912;28;20028;-65
2021/10/26 01:35:31;;;;;;;29.75;22.13;;;11.80;59.60;;;;;;5037619;28;20464;-65
2021/10/26 01:37:56;;;;;;;30.00;21.92;;;11.70;59.80;;;;;;5018237;28;20073;-65
2021/10/26 01:40:23;;;;;;;29.45;22.65;;;11.70;59.90;;;;;;5050617;28;20057;-65
2021/10/26 01:42:48;;;;;;;31.45;20.90;;;11.60;61.00;;;;;;5037130;28;20108;-65
2021/10/26 01:45:15;;;;;;;26.35;20.67;;;11.60;61.50;;;;;;5035035;28;20105;-65
2021/10/26 01:47:41;;;;;;;26.60;20.45;;;11.60;61.20;;;;;;5034427;28;20040;-64
2021/10/26 01:50:10;;;;;;;30.27;21.70;;;11.60;59.70;;;;;;5048508;28;20386;-64
2021/10/26 01:52:36;;;;;;;29.52;21.25;;;11.60;59.70;;;;;;5055307;28;20124;-65
2021/10/26 01:55:03;;;;;;;29.02;21.85;;;11.60;59.80;;;;;;5035529;28;20431;-65
2021/10/26 01:57:30;;;;;;;30.52;21.98;;;11.60;59.70;;;;;;5032541;28;20053;-65
2021/10/26 01:59:57;;;;;;;31.42;21.50;;;11.60;59.90;;;;;;5033678;28;20022;-64
2021/10/26 02:02:25;;;;;;;28.35;21.95;;;11.60;59.80;;;;;;5033159;28;20025;-64
2021/10/26 02:04:51;;;;;;;29.38;23.20;;;11.50;59.80;;;;;;5033540;28;20021;-64
2021/10/26 02:07:17;;;;;;;29.88;22.90;;;11.50;60.20;;;;;;5037186;28;20088;-65
2021/10/26 02:09:43;;;;;;;33.42;23.08;;;11.40;59.40;;;;;;5030666;28;20429;-64
2021/10/26 02:12:09;;;;;;;30.27;22.35;;;11.40;60.20;;;;;;5035833;28;20060;-64
2021/10/26 02:14:35;;;;;;;33.55;23.33;;;11.40;60.50;;;;;;5030067;28;20060;-64
2021/10/26 02:17:01;;;;;;;31.08;23.13;;;11.40;59.50;;;;;;5035508;28;20499;-64
2021/10/26 02:19:27;;;;;;;29.38;22.48;;;11.50;58.70;;;;;;5035313;28;20542;-64
2021/10/26 02:21:53;;;;;;;30.27;23.00;;;11.40;58.00;;;;;;5035880;28;20100;-64
2021/10/26 02:24:19;;;;;;;33.45;22.73;;;11.40;57.90;;;;;;5037547;28;20033;-64
2021/10/26 02:26:45;;;;;;;31.42;22.15;;;11.40;57.40;;;;;;5034262;28;20033;-64
2021/10/26 02:29:11;;;;;;;27.13;21.55;;;11.40;57.30;;;;;;5035196;28;20088;-64
2021/10/26 02:31:37;;;;;;;27.63;21.38;;;11.30;57.40;;;;;;5035888;28;20021;-64
2021/10/26 02:34:02;;;;;;;30.33;22.20;;;11.30;57.70;;;;;;5030583;28;20061;-64
2021/10/26 02:37:02;;;;;;;30.05;21.88;;;11.40;57.70;;;;;;5040710;28;20085;-64
2021/10/26 02:39:28;;;;;;;26.90;21.75;;;11.40;58.50;;;;;;5035824;28;20028;-64
2021/10/26 02:41:54;;;;;;;30.60;21.00;;;11.30;58.20;;;;;;5042850;28;20175;-64
2021/10/26 02:44:19;;;;;;;31.02;21.45;;;11.30;58.50;;;;;;5027673;28;20487;-64
2021/10/26 02:46:45;;;;;;;29.42;21.35;;;11.30;57.90;;;;;;5044469;28;20034;-64
2021/10/26 02:49:11;;;;;;;26.15;20.73;;;11.30;56.70;;;;;;5042626;28;20102;-64
2021/10/26 02:51:37;;;;;;;25.17;21.02;;;11.20;55.50;;;;;;5046045;28;20057;-64
2021/10/26 02:54:05;;;;;;;27.30;21.40;;;11.30;55.00;;;;;;5036405;28;20025;-64
2021/10/26 02:56:31;;;;;;;26.90;20.33;;;11.30;54.90;;;;;;5043764;28;20118;-64
2021/10/26 02:58:57;;;;;;;29.13;21.17;;;11.20;54.80;;;;;;5032715;28;20065;-64
2021/10/26 03:01:23;;;;;;;27.70;21.45;;;11.20;54.60;;;;;;5034947;28;20033;-64
2021/10/26 03:03:51;;;;;;;30.45;20.77;;;11.20;54.70;;;;;;5030332;28;20029;-64
2021/10/26 03:06:19;;;;;;;29.45;19.83;;;11.20;54.70;;;;;;5030037;28;20060;-64
2021/10/26 03:08:45;;;;;;;30.15;21.65;;;11.20;54.60;;;;;;5015962;28;20077;-65
2021/10/26 03:11:11;;;;;;;25.05;19.55;;;11.20;54.70;;;;;;5042785;28;20036;-64
2021/10/26 03:13:36;;;;;;;27.75;20.38;;;11.20;54.80;;;;;;5033153;28;20041;-64
2021/10/26 03:16:02;;;;;;;24.83;19.70;;;11.20;54.60;;;;;;5035236;28;20033;-64
2021/10/26 03:18:28;;;;;;;28.92;20.33;;;11.20;54.60;;;;;;5031800;28;20041;-64
2021/10/26 03:20:57;;;;;;;26.38;20.02;;;11.00;54.60;;;;;;5031554;28;20025;-64
2021/10/26 03:23:32;;;;;;;25.15;20.05;;;11.10;55.00;;;;;;5029684;28;20117;-64
2021/10/26 03:25:58;;;;;;;27.70;20.02;;;11.00;54.80;;;;;;5047993;28;20399;-64
2021/10/26 03:28:25;;;;;;;27.67;20.00;;;11.10;54.90;;;;;;5033063;28;20041;-64
2021/10/26 03:30:50;;;;;;;28.42;21.42;;;11.00;54.80;;;;;;5033149;28;20437;-64
2021/10/26 03:33:16;;;;;;;28.17;20.20;;;11.00;55.00;;;;;;5035565;28;20017;-65
2021/10/26 03:35:41;;;;;;;29.98;21.27;;;10.90;55.30;;;;;;5044273;28;20509;-64
2021/10/26 03:38:07;;;;;;;27.65;22.67;;;11.00;55.20;;;;;;5041513;28;20074;-64
2021/10/26 03:40:33;;;;;;;31.45;22.63;;;10.90;55.20;;;;;;5029140;28;20032;-64
2021/10/26 03:42:59;;;;;;;32.42;24.48;;;10.90;55.10;;;;;;5033863;28;20516;-64
2021/10/26 03:45:24;;;;;;;32.65;24.15;;;11.00;55.10;;;;;;5038096;28;20037;-64
2021/10/26 03:47:50;;;;;;;29.98;23.80;;;11.00;55.20;;;;;;5028329;28;20036;-64
2021/10/26 03:50:17;;;;;;;30.75;25.17;;;11.00;55.20;;;;;;5033328;28;20025;-64
2021/10/26 03:52:43;;;;;;;35.00;27.92;;;11.00;55.20;;;;;;5032445;28;20030;-64
2021/10/26 03:55:10;;;;;;;42.50;28.95;;;11.00;55.30;;;;;;5034012;28;20557;-64
2021/10/26 03:57:36;;;;;;;39.17;31.50;;;11.00;55.40;;;;;;5032336;28;20163;-64
2021/10/26 04:00:04;;;;;;;39.50;32.92;;;10.90;55.40;;;;;;5031734;28;20060;-64
2021/10/26 04:02:32;;;;;;;37.80;30.80;;;10.90;55.50;;;;;;5015000;28;20161;-64
2021/10/26 04:05:05;;;;;;;41.55;31.48;;;10.90;55.60;;;;;;5039300;28;20435;-64
2021/10/26 04:07:32;;;;;;;40.28;32.35;;;10.90;55.50;;;;;;5032085;28;20517;-64
2021/10/26 04:10:04;;;;;;;42.70;30.83;;;11.00;55.40;;;;;;5032678;28;20017;-64
2021/10/26 04:12:30;;;;;;;37.92;33.28;;;11.00;55.50;;;;;;5034176;28;20025;-64
2021/10/26 04:15:00;;;;;;;38.67;31.63;;;10.80;55.40;;;;;;5021754;28;20432;-64
2021/10/26 04:17:27;;;;;;;44.53;33.65;;;10.80;55.70;;;;;;5031604;28;20060;-64
2021/10/26 04:19:54;;;;;;;43.17;34.92;;;10.90;55.80;;;;;;5036296;28;20060;-64
2021/10/26 04:22:21;;;;;;;42.28;32.60;;;10.80;55.80;;;;;;5043493;28;20542;-64
2021/10/26 04:24:49;;;;;;;43.95;33.05;;;10.80;56.00;;;;;;5043445;28;20104;-64
2021/10/26 04:27:15;;;;;;;37.92;30.23;;;10.90;56.00;;;;;;5042637;28;20051;-64
2021/10/26 04:29:42;;;;;;;32.17;26.17;;;10.80;56.40;;;;;;5030699;28;20018;-64
2021/10/26 04:32:09;;;;;;;33.50;25.30;;;10.90;56.60;;;;;;5031796;28;20021;-63
2021/10/26 04:34:39;;;;;;;30.87;21.53;;;10.90;56.70;;;;;;5027637;28;20166;-64
2021/10/26 04:37:09;;;;;;;29.77;22.27;;;10.90;56.70;;;;;;5026390;28;20069;-64
2021/10/26 04:39:39;;;;;;;29.23;21.83;;;10.80;56.90;;;;;;5029959;28;20040;-64
2021/10/26 04:42:08;;;;;;;25.88;20.70;;;10.90;56.90;;;;;;5032818;28;20029;-64
2021/10/26 04:44:34;;;;;;;29.02;21.17;;;10.80;56.80;;;;;;5017981;28;20021;-64
2021/10/26 04:46:59;;;;;;;31.23;21.88;;;10.90;56.70;;;;;;5034607;28;20403;-64
2021/10/26 04:49:26;;;;;;;27.58;20.33;;;10.90;56.70;;;;;;5031329;28;20029;-64
2021/10/26 04:51:52;;;;;;;26.20;19.67;;;10.90;56.90;;;;;;5029788;28;20743;-64
2021/10/26 04:54:17;;;;;;;27.23;21.10;;;10.90;57.30;;;;;;5031064;28;20104;-64
2021/10/26 04:56:43;;;;;;;26.08;19.50;;;10.90;56.50;;;;;;5031851;28;20076;-64
2021/10/26 04:59:09;;;;;;;27.55;20.17;;;10.80;56.80;;;;;;5014725;28;20383;-64
2021/10/26 05:01:38;;;;;;;29.77;20.15;;;10.80;56.50;;;;;;5035324;28;20025;-64
2021/10/26 05:04:04;;;;;;;27.63;19.90;;;10.90;57.20;;;;;;5038106;28;20037;-64
2021/10/26 05:06:30;;;;;;;25.33;19.60;;;10.90;56.90;;;;;;5028045;28;20083;-65
2021/10/26 05:08:55;;;;;;;25.05;18.90;;;10.80;56.90;;;;;;5028904;28;20105;-65
2021/10/26 05:11:23;;;;;;;28.33;20.25;;;10.80;57.00;;;;;;5026115;28;20053;-65
2021/10/26 05:13:49;;;;;;;28.00;20.00;;;10.80;57.00;;;;;;5032856;28;20026;-65
2021/10/26 05:16:15;;;;;;;27.75;21.33;;;10.80;56.90;;;;;;5031191;28;20017;-65
2021/10/26 05:18:43;;;;;;;25.20;19.88;;;10.70;57.20;;;;;;5034977;28;20104;-64
2021/10/26 05:21:15;;;;;;;25.75;19.30;;;10.80;57.50;;;;;;5040825;28;20116;-65
2021/10/26 05:23:45;;;;;;;27.50;20.97;;;10.80;57.30;;;;;;5039951;28;20030;-65
2021/10/26 05:26:11;;;;;;;26.90;20.23;;;10.80;57.40;;;;;;5030983;28;20068;-65
2021/10/26 05:28:37;;;;;;;26.20;20.33;;;10.80;57.80;;;;;;5031363;28;20146;-65
2021/10/26 05:31:02;;;;;;;26.57;19.20;;;10.80;57.70;;;;;;5030061;28;20490;-65
2021/10/26 05:33:28;;;;;;;24.23;20.23;;;10.80;57.80;;;;;;5031611;28;20028;-65
2021/10/26 05:35:54;;;;;;;27.50;20.63;;;10.90;58.10;;;;;;5032187;28;20041;-64
2021/10/26 05:38:19;;;;;;;26.43;20.30;;;10.80;58.00;;;;;;5030265;28;20041;-65
2021/10/26 05:40:45;;;;;;;28.35;21.13;;;10.80;58.10;;;;;;5031497;28;20478;-65
2021/10/26 05:43:11;;;;;;;31.07;21.80;;;10.80;58.20;;;;;;5031955;28;20029;-65
2021/10/26 05:45:39;;;;;;;28.88;21.38;;;10.90;58.20;;;;;;5036991;28;20021;-65
2021/10/26 05:48:05;;;;;;;25.70;19.97;;;10.90;58.40;;;;;;5052594;28;20389;-65
2021/10/26 05:50:31;;;;;;;26.40;19.53;;;10.90;58.20;;;;;;5044119;28;20108;-65
2021/10/26 05:52:56;;;;;;;29.58;20.90;;;10.80;58.00;;;;;;5050914;28;20320;-64
2021/10/26 05:55:22;;;;;;;28.07;19.30;;;10.90;58.00;;;;;;5022343;28;20018;-65
2021/10/26 05:57:47;;;;;;;28.55;19.85;;;10.90;58.00;;;;;;5030743;28;20124;-64
2021/10/26 06:00:14;;;;;;;26.45;20.17;;;10.90;58.00;;;;;;5030659;28;20479;-65
2021/10/26 06:02:39;;;;;;;28.02;20.50;;;10.90;58.00;;;;;;5031295;28;20044;-64
2021/10/26 06:05:05;;;;;;;26.75;19.85;;;10.90;58.00;;;;;;5030012;28;20037;-64
2021/10/26 06:07:31;;;;;;;25.25;19.92;;;10.90;57.90;;;;;;5032326;28;20033;-64
2021/10/26 06:09:56;;;;;;;28.83;19.95;;;10.80;58.10;;;;;;5030176;28;20510;-64
2021/10/26 06:12:28;;;;;;;29.15;20.27;;;10.80;58.20;;;;;;5048414;28;20037;-64
2021/10/26 06:14:53;;;;;;;27.17;19.33;;;10.80;57.70;;;;;;5031225;28;20021;-64
2021/10/26 06:17:19;;;;;;;25.20;18.63;;;10.80;57.50;;;;;;5049862;28;20045;-64
2021/10/26 06:20:31;;;;;;;25.93;21.13;;;10.90;57.80;;;;;;5039201;28;20524;-64
2021/10/26 06:22:57;;;;;;;29.95;19.63;;;10.90;57.90;;;;;;5030514;28;20056;-65
2021/10/26 06:25:23;;;;;;;29.02;20.88;;;10.90;57.40;;;;;;5035742;28;20054;-64
2021/10/26 06:27:55;;;;;;;30.65;22.08;;;10.90;57.50;;;;;;5052177;28;20080;-64
2021/10/26 06:30:21;;;;;;;29.00;19.83;;;11.00;57.20;;;;;;5054367;28;20017;-64
2021/10/26 06:32:46;;;;;;;28.23;19.23;;;10.90;56.90;;;;;;5036832;28;20537;-64
2021/10/26 06:35:12;;;;;;;28.92;19.42;;;11.00;57.20;;;;;;5033391;28;20045;-64
2021/10/26 06:37:43;;;;;;;30.38;21.15;;;10.80;57.20;;;;;;5034963;28;20042;-64
2021/10/26 06:40:11;;;;;;;26.55;20.45;;;10.90;57.40;;;;;;5035633;28;20083;-64
2021/10/26 06:42:37;;;;;;;33.92;21.13;;;11.00;57.40;;;;;;5042862;28;20483;-64
2021/10/26 06:45:03;;;;;;;29.03;20.33;;;11.00;57.00;;;;;;5055412;28;20029;-64
2021/10/26 06:47:29;;;;;;;27.60;21.75;;;11.00;57.30;;;;;;5053142;28;20132;-64
2021/10/26 06:49:54;;;;;;;33.30;20.85;;;11.10;57.30;;;;;;5055365;28;20053;-64
2021/10/26 06:52:20;;;;;;;32.53;22.13;;;11.00;57.30;;;;;;5051608;28;20033;-65
2021/10/26 06:54:46;;;;;;;31.02;21.08;;;11.10;57.20;;;;;;5053732;28;20412;-65
2021/10/26 06:57:11;;;;;;;32.90;23.23;;;11.10;56.90;;;;;;5051206;28;20159;-65
2021/10/26 06:59:37;;;;;;;33.22;23.45;;;11.10;57.20;;;;;;5053720;28;20021;-65
2021/10/26 07:02:03;;;;;;;31.95;23.63;;;11.20;57.00;;;;;;5050245;28;20035;-66
2021/10/26 07:04:29;;;;;;;32.75;25.15;;;11.20;57.00;;;;;;5052541;28;20025;-64
2021/10/26 07:06:55;;;;;;;32.42;24.02;;;11.20;56.80;;;;;;5052917;28;20126;-64
2021/10/26 07:09:20;;;;;;;36.17;23.80;;;11.20;56.40;;;;;;5054973;28;20024;-64
2021/10/26 07:11:49;;;;;;;35.15;22.92;;;11.30;56.70;;;;;;5046537;28;20021;-65
2021/10/26 07:14:15;;;;;;;31.73;22.08;;;11.30;56.50;;;;;;5032864;28;20030;-65
2021/10/26 07:16:40;;;;;;;35.95;24.42;;;11.30;56.40;;;;;;5038155;28;20033;-65
2021/10/26 07:19:06;;;;;;;32.85;24.70;;;11.30;56.30;;;;;;5040166;28;20109;-65
2021/10/26 07:21:31;;;;;;;32.67;23.88;;;11.30;56.10;;;;;;5045772;28;20032;-65
2021/10/26 07:23:57;;;;;;;36.40;24.60;;;11.30;56.20;;;;;;5038646;28;20021;-65
2021/10/26 07:29:45;;;;;;;31.98;23.77;;;11.40;56.20;;;;;;5019723;28;20438;-64
2021/10/26 07:32:10;;;;;;;34.20;23.63;;;11.40;55.90;;;;;;5040604;28;20107;-65
2021/10/26 07:34:36;;;;;;;36.13;25.50;;;11.50;56.10;;;;;;5035575;28;20459;-64
2021/10/26 07:37:01;;;;;;;33.88;23.50;;;11.40;56.00;;;;;;5037231;28;20048;-64
2021/10/26 07:41:53;;;;;;;35.90;25.48;;;11.40;56.50;;;;;;5035687;28;20390;-64
2021/10/26 07:44:20;;;;;;;34.42;24.50;;;11.50;56.30;;;;;;5045425;28;20032;-65
2021/10/26 07:46:45;;;;;;;35.13;26.00;;;11.40;56.10;;;;;;5050881;28;20025;-64
2021/10/26 07:49:11;;;;;;;37.25;25.85;;;11.50;56.10;;;;;;5049419;28;20385;-65
2021/10/26 07:51:37;;;;;;;34.95;25.10;;;11.50;55.70;;;;;;5052338;28;20419;-64
2021/10/26 07:54:03;;;;;;;40.35;25.88;;;11.60;55.90;;;;;;5054119;28;20025;-65
2021/10/26 07:56:29;;;;;;;37.70;26.38;;;11.60;55.70;;;;;;5052203;28;20029;-65
2021/10/26 07:58:56;;;;;;;35.72;25.80;;;11.60;55.80;;;;;;5049545;28;20223;-64
2021/10/26 08:01:22;;;;;;;40.40;26.63;;;11.70;55.80;;;;;;5032871;28;20053;-65
2021/10/26 08:03:47;;;;;;;37.42;26.65;;;11.80;55.70;;;;;;5053897;28;20098;-64
2021/10/26 08:06:13;;;;;;;37.63;25.85;;;11.90;55.90;;;;;;5053037;28;20025;-64
2021/10/26 08:08:39;;;;;;;40.60;27.38;;;11.80;55.30;;;;;;5052827;28;20501;-65
2021/10/26 08:11:05;;;;;;;43.20;26.27;;;11.80;55.50;;;;;;5045459;28;20432;-65
2021/10/26 08:13:31;;;;;;;35.65;26.23;;;11.80;55.40;;;;;;5050265;28;20029;-64
2021/10/26 08:15:57;;;;;;;38.45;24.38;;;11.90;55.20;;;;;;5052541;28;20497;-64
2021/10/26 08:18:23;;;;;;;40.70;24.33;;;11.90;54.90;;;;;;5035501;28;20045;-65
2021/10/26 08:20:52;;;;;;;37.85;25.48;;;12.00;55.10;;;;;;5033686;28;20021;-65
2021/10/26 08:23:19;;;;;;;37.03;23.65;;;11.90;54.30;;;;;;5047811;28;20035;-64
2021/10/26 08:25:49;;;;;;;36.08;24.67;;;11.90;54.70;;;;;;5053546;28;20107;-64
2021/10/26 08:28:16;;;;;;;37.03;24.63;;;12.00;54.80;;;;;;5051489;28;20053;-64
2021/10/26 08:36:12;;;;;;;39.88;23.70;;;12.10;54.70;;;;;;5031103;28;20183;-65
2021/10/26 08:38:37;;;;;;;33.00;23.35;;;12.20;54.50;;;;;;5046489;28;20057;-64
2021/10/26 08:41:07;;;;;;;34.45;23.35;;;12.20;53.40;;;;;;5052968;28;20019;-65
2021/10/26 08:43:33;;;;;;;37.05;24.20;;;12.20;53.40;;;;;;5049752;28;20079;-64
2021/10/26 08:46:09;;;;;;;40.60;25.58;;;12.20;53.90;;;;;;5053421;28;20028;-65
2021/10/26 08:48:40;;;;;;;31.35;23.67;;;12.30;54.20;;;;;;5035188;28;20036;-65
2021/10/26 08:51:06;;;;;;;41.92;26.55;;;12.30;53.50;;;;;;5033364;28;20391;-64
2021/10/26 08:53:32;;;;;;;33.72;24.95;;;12.40;52.60;;;;;;5040223;28;20092;-64
2021/10/26 08:56:02;;;;;;;39.00;25.40;;;12.30;53.50;;;;;;5033015;28;20025;-65
2021/10/26 08:58:32;;;;;;;36.38;25.45;;;12.30;53.00;;;;;;5046413;28;20182;-65
2021/10/26 09:01:01;;;;;;;35.10;25.33;;;12.30;52.40;;;;;;5051608;28;20040;-65
2021/10/26 09:03:32;;;;;;;42.00;27.15;;;12.40;53.30;;;;;;5048978;28;20400;-65
2021/10/26 09:05:58;;;;;;;34.33;26.08;;;12.40;53.20;;;;;;5041140;28;20021;-64
2021/10/26 09:08:28;;;;;;;34.22;25.48;;;12.40;53.00;;;;;;5030715;28;20041;-65
2021/10/26 09:10:57;;;;;;;36.72;27.20;;;12.50;53.40;;;;;;5029045;28;20379;-64
2021/10/26 09:16:41;;;;;;;40.72;26.90;;;12.70;53.40;;;;;;5033205;28;20029;-64
2021/10/26 09:19:09;;;;;;;36.60;25.52;;;12.70;52.30;;;;;;5050023;28;20060;-64
2021/10/26 09:21:35;;;;;;;37.28;26.17;;;12.70;52.70;;;;;;5051263;28;20382;-65
2021/10/26 09:24:08;;;;;;;36.03;26.55;;;12.70;52.40;;;;;;5050604;28;20040;-64
2021/10/26 09:26:52;;;;;;;44.17;27.23;;;12.70;52.40;;;;;;5052810;28;20104;-64
2021/10/26 09:29:22;;;;;;;39.67;26.90;;;12.70;52.10;;;;;;5040742;28;20061;-65
2021/10/26 09:31:48;;;;;;;39.00;28.70;;;12.80;52.40;;;;;;5041343;28;20029;-65
2021/10/26 09:34:20;;;;;;;35.55;26.40;;;13.00;52.20;;;;;;5030530;28;20029;-65
2021/10/26 09:36:49;;;;;;;45.88;27.73;;;12.90;52.20;;;;;;5031137;28;20107;-64
2021/10/26 09:39:23;;;;;;;37.00;26.48;;;13.00;52.10;;;;;;5029520;28;20060;-65
2021/10/26 09:41:55;;;;;;;;;;;13.00;52.20;;;;;;5031812;28;20041;-64
2021/10/26 09:44:27;;;;;;;35.97;25.10;;;13.00;53.10;;;;;;5049459;28;19912;-65
2021/10/26 09:46:59;;;;;;;38.00;27.05;;;13.00;52.30;;;;;;5051216;28;20061;-64
2021/10/26 09:49:34;;;;;;;39.08;26.88;;;13.10;52.20;;;;;;5051068;28;20032;-65
2021/10/26 09:52:11;;;;;;;37.10;26.73;;;13.10;51.40;;;;;;5052514;28;20082;-64
2021/10/26 09:54:37;;;;;;;37.05;26.92;;;13.20;52.00;;;;;;5015460;28;20448;-64
2021/10/26 09:57:08;;;;;;;44.10;28.48;;;13.20;51.50;;;;;;5016261;28;20061;-64
2021/10/26 09:59:36;;;;;;;40.67;28.95;;;13.30;51.40;;;;;;5014679;28;20431;-65
2021/10/26 10:02:02;;;;;;;39.85;27.92;;;13.30;51.20;;;;;;5049671;28;20108;-65
2021/10/26 10:04:34;;;;;;;34.83;26.08;;;13.40;51.50;;;;;;5034995;28;20129;-65
2021/10/26 10:07:01;;;;;;;36.45;26.05;;;13.40;51.10;;;;;;5033454;28;20048;-64
2021/10/26 10:09:27;;;;;;;35.47;26.65;;;13.50;50.70;;;;;;5053296;28;20398;-65
2021/10/26 10:11:58;;;;;;;40.28;27.00;;;13.60;50.60;;;;;;5054719;28;20566;-64
2021/10/26 10:14:24;;;;;;;36.17;27.30;;;13.60;50.50;;;;;;5034037;28;20035;-64
2021/10/26 10:16:54;;;;;;;34.60;25.85;;;13.60;50.30;;;;;;5034430;28;20031;-64
2021/10/26 10:19:20;;;;;;;38.72;25.77;;;13.70;50.30;;;;;;5051274;28;20033;-64
2021/10/26 10:21:47;;;;;;;34.38;25.95;;;13.70;49.80;;;;;;5054615;28;20478;-64
2021/10/26 10:24:15;;;;;;;35.75;25.60;;;13.80;49.70;;;;;;5037377;28;20037;-64
2021/10/26 10:26:51;;;;;;;36.70;26.17;;;13.80;49.80;;;;;;5036093;28;20329;-64
2021/10/26 10:29:21;;;;;;;38.38;25.65;;;13.90;49.50;;;;;;5047450;28;20028;-65
2021/10/26 10:31:49;;;;;;;32.22;24.95;;;13.90;48.10;;;;;;5055733;28;20024;-64
2021/10/26 10:34:20;;;;;;;34.40;24.85;;;13.90;48.80;;;;;;5053497;28;20021;-65
2021/10/26 10:36:47;;;;;;;36.88;25.75;;;14.00;48.90;;;;;;5055406;28;20124;-65
2021/10/26 10:39:14;;;;;;;37.35;25.85;;;14.10;48.60;;;;;;5053512;28;20112;-65
2021/10/26 10:41:41;;;;;;;39.70;26.00;;;14.20;48.20;;;;;;5054216;28;20025;-65
2021/10/26 10:44:19;;;;;;;36.33;25.00;;;14.20;47.60;;;;;;5037075;28;20075;-65
2021/10/26 10:46:56;;;;;;;37.08;25.63;;;14.20;47.50;;;;;;5035743;28;20045;-65
2021/10/26 10:49:26;;;;;;;34.92;25.08;;;14.30;47.70;;;;;;5051101;28;20029;-64
2021/10/26 10:52:05;;;;;;;39.90;23.95;;;14.40;47.00;;;;;;5053661;28;20025;-64
2021/10/26 10:54:38;;;;;;;37.08;22.85;;;14.40;45.00;;;;;;5046757;28;20037;-65
2021/10/26 10:57:30;;;;;;;37.65;24.50;;;14.40;46.10;;;;;;5031852;28;20136;-65
2021/10/26 10:59:57;;;;;;;39.50;25.10;;;14.50;44.50;;;;;;5025764;28;20022;-65
2021/10/26 11:02:43;;;;;;;34.05;24.20;;;14.40;45.30;;;;;;5034739;28;20033;-65
2021/10/26 11:05:32;;;;;;;32.58;24.05;;;14.50;43.40;;;;;;5054151;28;20486;-65
2021/10/26 11:08:12;;;;;;;37.28;23.50;;;14.50;44.40;;;;;;5029289;28;20033;-65
2021/10/26 11:10:50;;;;;;;32.40;22.38;;;14.60;44.10;;;;;;5035341;28;20026;-64
2021/10/26 11:13:21;;;;;;;35.22;23.08;;;14.60;41.80;;;;;;5040164;28;20044;-64
2021/10/26 11:15:53;;;;;;;32.45;21.27;;;14.70;42.10;;;;;;5055019;28;20025;-64
2021/10/26 11:18:40;;;;;;;24.88;19.58;;;14.80;42.10;;;;;;5042947;28;20065;-65
2021/10/26 11:21:26;;;;;;;33.90;21.42;;;14.80;40.80;;;;;;5045904;28;20025;-64
2021/10/26 11:23:51;;;;;;;;;;;15.00;41.10;;;;;;5042058;28;20037;-64
2021/10/26 11:26:42;;;;;;;29.92;20.13;;;15.00;41.20;;;;;;5034697;28;19905;-64
2021/10/26 11:29:10;;;;;;;26.17;21.17;;;15.20;41.10;;;;;;5036649;28;20021;-64
2021/10/26 11:31:50;;;;;;;27.88;21.15;;;15.10;42.10;;;;;;5054638;28;20090;-64
2021/10/26 11:34:25;;;;;;;28.67;21.85;;;15.30;44.10;;;;;;5051496;28;20033;-64
2021/10/26 11:36:59;;;;;;;;;;;15.40;48.70;;;;;;5032983;28;20510;-64
2021/10/26 11:39:24;;;;;;;27.50;19.05;;;15.40;48.20;;;;;;5047614;28;19932;-64
2021/10/26 11:41:51;;;;;;;26.55;19.88;;;15.40;47.40;;;;;;5052821;28;20479;-64
2021/10/26 11:44:27;;;;;;;26.88;19.58;;;15.40;48.60;;;;;;5035072;28;20502;-64
2021/10/26 11:46:53;;;;;;;24.30;18.73;;;15.60;42.30;;;;;;5034457;28;20025;-65
2021/10/26 11:49:25;;;;;;;29.50;19.48;;;15.50;40.30;;;;;;5033223;28;20103;-64
2021/10/26 11:51:55;;;;;;;25.38;19.45;;;15.50;40.10;;;;;;5033143;28;20392;-64
2021/10/26 11:54:21;;;;;;;24.80;20.38;;;15.50;40.50;;;;;;5044723;28;20028;-64
2021/10/26 11:56:58;;;;;;;26.10;20.60;;;15.60;41.90;;;;;;5053985;28;20382;-64
2021/10/26 11:59:26;;;;;;;26.95;19.98;;;15.60;41.10;;;;;;5051609;28;20553;-64
2021/10/26 12:01:53;;;;;;;25.27;18.73;;;15.70;41.00;;;;;;5054222;28;20076;-65
2021/10/26 12:04:19;;;;;;;25.55;19.83;;;15.60;43.20;;;;;;5037775;28;20037;-64
2021/10/26 12:07:02;;;;;;;23.38;18.65;;;15.70;44.50;;;;;;5033053;28;20516;-64
2021/10/26 12:09:29;;;;;;;24.30;18.92;;;15.80;43.80;;;;;;5038084;28;20040;-64
2021/10/26 12:11:59;;;;;;;24.75;20.02;;;15.80;40.10;;;;;;5033962;28;20021;-64
2021/10/26 12:14:30;;;;;;;24.27;18.92;;;15.90;39.70;;;;;;5045826;28;20040;-64
2021/10/26 12:17:08;;;;;;;24.60;19.25;;;15.90;41.80;;;;;;5053276;28;20029;-64
2021/10/26 12:19:36;;;;;;;26.67;19.42;;;15.90;49.10;;;;;;5036220;28;20124;-63
2021/10/26 12:22:02;;;;;;;23.70;18.77;;;15.90;49.20;;;;;;5036452;28;20029;-64
2021/10/26 12:24:29;;;;;;;23.98;19.35;;;16.00;49.30;;;;;;5036996;28;20120;-64
2021/10/26 12:27:05;;;;;;;26.75;19.05;;;16.00;48.00;;;;;;5038795;28;20123;-64
2021/10/26 12:29:43;;;;;;;27.42;19.73;;;15.70;68.60;;;;;;5051581;28;20437;-64
2021/10/26 12:32:10;;;;;;;25.20;18.90;;;16.00;71.40;;;;;;5046773;28;20122;-64
2021/10/26 12:34:38;;;;;;;27.90;20.45;;;16.00;70.50;;;;;;5042855;28;20128;-64
2021/10/26 12:37:21;;;;;;;31.88;22.73;;;;;;;;;;5027305;28;20085;-64
2021/10/26 12:39:52;;;;;;;24.45;19.55;;;16.00;58.40;;;;;;5016953;28;20129;-63
2021/10/26 12:42:57;;;;;;;27.52;18.35;;;16.00;56.30;;;;;;5049005;28;20363;-64
2021/10/26 12:45:56;;;;;;;20.73;18.00;;;16.20;52.60;;;;;;5030871;28;20041;-64
2021/10/26 12:48:23;;;;;;;25.40;19.15;;;16.20;49.80;;;;;;5031517;28;20028;-63